sensor_id;sensor_type;location;lat;lon;timestamp;P1;durP1;ratioP1;P2;durP2;ratioP2
2646;SDS011;1333;50.958;6.770;2023-02-28T00:00:46;2.97;;;2.00;;
2646;SDS011;1333;50.958;6.770;2023-02-28T00:03:11;2.70;;;2.10;;
2646;SDS011;1333;50.958;6.770;2023-02-28T00:05:37;3.67;;;2.20;;
2646;SDS011;1333;50.958;6.770;2023-02-28T00:08:04;1.87;;;1.50;;
2646;SDS011;1333;50.958;6.770;2023-02-28T00:10:31;2.27;;;1.60;;
2646;SDS011;1333;50.958;6.770;2023-02-28T00:13:03;3.93;;;2.17;;
2646;SDS011;1333;50.958;6.770;2023-02-28T00:15:57;2.60;;;1.63;;
2646;SDS011;1333;50.958;6.770;2023-02-28T00:18:24;3.27;;;1.87;;
2646;SDS011;1333;50.958;6.770;2023-02-28T00:20:50;2.67;;;2.00;;
2646;SDS011;1333;50.958;6.770;2023-02-28T00:23:15;5.13;;;1.93;;
2646;SDS011;1333;50.958;6.770;2023-02-28T00:25:48;2.07;;;1.30;;
2646;SDS011;1333;50.958;6.770;2023-02-28T00:28:14;2.70;;;1.80;;
2646;SDS011;1333;50.958;6.770;2023-02-28T00:30:40;3.43;;;1.70;;
2646;SDS011;1333;50.958;6.770;2023-02-28T00:33:06;4.23;;;2.13;;
2646;SDS011;1333;50.958;6.770;2023-02-28T00:35:31;3.10;;;1.50;;
2646;SDS011;1333;50.958;6.770;2023-02-28T00:37:57;2.80;;;2.37;;
2646;SDS011;1333;50.958;6.770;2023-02-28T00:40:22;2.93;;;1.90;;
2646;SDS011;1333;50.958;6.770;2023-02-28T00:42:48;2.40;;;2.20;;
2646;SDS011;1333;50.958;6.770;2023-02-28T00:45:13;2.70;;;2.20;;
2646;SDS011;1333;50.958;6.770;2023-02-28T00:47:39;3.20;;;1.97;;
2646;SDS011;1333;50.958;6.770;2023-02-28T00:50:04;2.27;;;1.40;;
2646;SDS011;1333;50.958;6.770;2023-02-28T00:52:31;3.50;;;1.77;;
2646;SDS011;1333;50.958;6.770;2023-02-28T00:54:56;3.00;;;1.93;;
2646;SDS011;1333;50.958;6.770;2023-02-28T00:57:22;3.20;;;2.80;;
2646;SDS011;1333;50.958;6.770;2023-02-28T00:59:48;4.43;;;2.37;;
2646;SDS011;1333;50.958;6.770;2023-02-28T01:02:13;2.07;;;1.80;;
2646;SDS011;1333;50.958;6.770;2023-02-28T01:04:39;2.90;;;1.83;;
2646;SDS011;1333;50.958;6.770;2023-02-28T01:07:04;3.57;;;2.53;;
2646;SDS011;1333;50.958;6.770;2023-02-28T01:09:30;5.67;;;3.20;;
2646;SDS011;1333;50.958;6.770;2023-02-28T01:11:55;3.97;;;2.30;;
2646;SDS011;1333;50.958;6.770;2023-02-28T01:14:21;3.90;;;2.50;;
2646;SDS011;1333;50.958;6.770;2023-02-28T01:16:47;6.20;;;2.97;;
2646;SDS011;1333;50.958;6.770;2023-02-28T01:19:12;3.10;;;2.40;;
2646;SDS011;1333;50.958;6.770;2023-02-28T01:21:38;3.00;;;2.03;;
2646;SDS011;1333;50.958;6.770;2023-02-28T01:24:04;1.80;;;1.70;;
2646;SDS011;1333;50.958;6.770;2023-02-28T01:26:30;3.37;;;1.97;;
2646;SDS011;1333;50.958;6.770;2023-02-28T01:28:56;2.83;;;2.00;;
2646;SDS011;1333;50.958;6.770;2023-02-28T01:31:22;3.37;;;2.23;;
2646;SDS011;1333;50.958;6.770;2023-02-28T01:33:48;3.43;;;2.03;;
2646;SDS011;1333;50.958;6.770;2023-02-28T01:36:18;3.53;;;2.37;;
2646;SDS011;1333;50.958;6.770;2023-02-28T01:38:46;2.07;;;1.60;;
2646;SDS011;1333;50.958;6.770;2023-02-28T01:41:14;2.20;;;1.60;;
2646;SDS011;1333;50.958;6.770;2023-02-28T01:46:14;2.57;;;2.33;;
2646;SDS011;1333;50.958;6.770;2023-02-28T01:48:40;1.40;;;1.30;;
2646;SDS011;1333;50.958;6.770;2023-02-28T01:51:15;3.63;;;2.10;;
2646;SDS011;1333;50.958;6.770;2023-02-28T01:53:49;4.33;;;2.10;;
2646;SDS011;1333;50.958;6.770;2023-02-28T01:56:21;2.67;;;1.73;;
2646;SDS011;1333;50.958;6.770;2023-02-28T01:58:53;7.67;;;1.50;;
2646;SDS011;1333;50.958;6.770;2023-02-28T02:01:20;2.07;;;1.80;;
2646;SDS011;1333;50.958;6.770;2023-02-28T02:03:48;2.03;;;1.53;;
2646;SDS011;1333;50.958;6.770;2023-02-28T02:06:20;2.20;;;2.00;;
2646;SDS011;1333;50.958;6.770;2023-02-28T02:08:47;2.30;;;1.80;;
2646;SDS011;1333;50.958;6.770;2023-02-28T02:11:17;1.63;;;1.53;;
2646;SDS011;1333;50.958;6.770;2023-02-28T02:38:53;2.20;;;2.00;;
2646;SDS011;1333;50.958;6.770;2023-02-28T02:41:55;5.00;;;3.47;;
2646;SDS011;1333;50.958;6.770;2023-02-28T02:44:59;7.03;;;3.63;;
2646;SDS011;1333;50.958;6.770;2023-02-28T02:47:23;3.33;;;2.47;;
2646;SDS011;1333;50.958;6.770;2023-02-28T02:49:51;5.90;;;2.33;;
2646;SDS011;1333;50.958;6.770;2023-02-28T02:52:20;2.50;;;1.80;;
2646;SDS011;1333;50.958;6.770;2023-02-28T02:54:50;1.87;;;1.67;;
2646;SDS011;1333;50.958;6.770;2023-02-28T02:57:27;2.33;;;1.60;;
2646;SDS011;1333;50.958;6.770;2023-02-28T02:59:57;1.90;;;1.63;;
2646;SDS011;1333;50.958;6.770;2023-02-28T03:02:23;1.70;;;1.33;;
2646;SDS011;1333;50.958;6.770;2023-02-28T03:04:56;3.57;;;1.90;;
2646;SDS011;1333;50.958;6.770;2023-02-28T03:07:27;10.50;;;1.80;;
2646;SDS011;1333;50.958;6.770;2023-02-28T03:09:54;2.03;;;1.70;;
2646;SDS011;1333;50.958;6.770;2023-02-28T03:12:21;2.73;;;1.47;;
2646;SDS011;1333;50.958;6.770;2023-02-28T03:17:35;3.63;;;2.80;;
2646;SDS011;1333;50.958;6.770;2023-02-28T03:20:17;8.50;;;3.30;;
2646;SDS011;1333;50.958;6.770;2023-02-28T03:22:52;2.40;;;1.93;;
2646;SDS011;1333;50.958;6.770;2023-02-28T03:31:02;3.43;;;1.70;;
2646;SDS011;1333;50.958;6.770;2023-02-28T03:33:59;1.67;;;1.57;;
2646;SDS011;1333;50.958;6.770;2023-02-28T03:36:41;2.00;;;1.67;;
2646;SDS011;1333;50.958;6.770;2023-02-28T03:39:21;4.83;;;1.40;;
2646;SDS011;1333;50.958;6.770;2023-02-28T03:41:57;1.60;;;1.23;;
2646;SDS011;1333;50.958;6.770;2023-02-28T03:44:28;2.93;;;1.83;;
2646;SDS011;1333;50.958;6.770;2023-02-28T03:47:07;4.10;;;3.20;;
2646;SDS011;1333;50.958;6.770;2023-02-28T03:49:40;2.53;;;2.00;;
2646;SDS011;1333;50.958;6.770;2023-02-28T03:52:30;3.20;;;2.13;;
2646;SDS011;1333;50.958;6.770;2023-02-28T03:55:00;2.97;;;1.77;;
2646;SDS011;1333;50.958;6.770;2023-02-28T04:00:06;2.60;;;1.73;;
2646;SDS011;1333;50.958;6.770;2023-02-28T04:02:37;1.83;;;1.57;;
2646;SDS011;1333;50.958;6.770;2023-02-28T04:05:02;6.67;;;3.13;;
2646;SDS011;1333;50.958;6.770;2023-02-28T04:07:29;5.60;;;2.47;;
2646;SDS011;1333;50.958;6.770;2023-02-28T04:09:55;5.10;;;3.00;;
2646;SDS011;1333;50.958;6.770;2023-02-28T04:12:21;2.13;;;1.60;;
2646;SDS011;1333;50.958;6.770;2023-02-28T04:14:48;1.63;;;1.53;;
2646;SDS011;1333;50.958;6.770;2023-02-28T04:17:13;3.03;;;1.83;;
2646;SDS011;1333;50.958;6.770;2023-02-28T04:19:39;1.70;;;1.37;;
2646;SDS011;1333;50.958;6.770;2023-02-28T04:22:05;3.27;;;2.37;;
2646;SDS011;1333;50.958;6.770;2023-02-28T04:24:30;3.00;;;2.70;;
2646;SDS011;1333;50.958;6.770;2023-02-28T04:26:56;5.10;;;2.80;;
2646;SDS011;1333;50.958;6.770;2023-02-28T04:29:24;4.90;;;1.87;;
2646;SDS011;1333;50.958;6.770;2023-02-28T04:31:51;1.93;;;1.53;;
2646;SDS011;1333;50.958;6.770;2023-02-28T04:34:24;2.87;;;1.80;;
2646;SDS011;1333;50.958;6.770;2023-02-28T04:36:53;3.50;;;2.10;;
2646;SDS011;1333;50.958;6.770;2023-02-28T04:39:20;3.73;;;2.07;;
2646;SDS011;1333;50.958;6.770;2023-02-28T04:41:47;3.77;;;1.73;;
2646;SDS011;1333;50.958;6.770;2023-02-28T04:44:12;2.20;;;1.43;;
2646;SDS011;1333;50.958;6.770;2023-02-28T04:46:38;1.60;;;1.43;;
2646;SDS011;1333;50.958;6.770;2023-02-28T04:49:04;2.00;;;1.80;;
2646;SDS011;1333;50.958;6.770;2023-02-28T04:51:29;2.57;;;2.27;;
2646;SDS011;1333;50.958;6.770;2023-02-28T04:53:55;2.90;;;2.53;;
2646;SDS011;1333;50.958;6.770;2023-02-28T04:56:20;3.23;;;2.20;;
2646;SDS011;1333;50.958;6.770;2023-02-28T04:58:46;3.40;;;2.47;;
2646;SDS011;1333;50.958;6.770;2023-02-28T05:01:17;3.47;;;2.23;;
2646;SDS011;1333;50.958;6.770;2023-02-28T05:03:45;2.20;;;1.53;;
2646;SDS011;1333;50.958;6.770;2023-02-28T05:06:11;3.00;;;1.80;;
2646;SDS011;1333;50.958;6.770;2023-02-28T05:08:37;5.63;;;2.37;;
2646;SDS011;1333;50.958;6.770;2023-02-28T05:11:03;2.03;;;1.83;;
2646;SDS011;1333;50.958;6.770;2023-02-28T05:13:31;5.80;;;2.60;;
2646;SDS011;1333;50.958;6.770;2023-02-28T05:15:56;3.13;;;2.27;;
2646;SDS011;1333;50.958;6.770;2023-02-28T05:18:22;2.23;;;1.97;;
2646;SDS011;1333;50.958;6.770;2023-02-28T05:20:47;9.50;;;4.17;;
2646;SDS011;1333;50.958;6.770;2023-02-28T05:23:13;16.67;;;7.77;;
2646;SDS011;1333;50.958;6.770;2023-02-28T05:25:39;4.77;;;3.97;;
2646;SDS011;1333;50.958;6.770;2023-02-28T05:28:06;6.10;;;4.23;;
2646;SDS011;1333;50.958;6.770;2023-02-28T05:30:32;5.40;;;3.60;;
2646;SDS011;1333;50.958;6.770;2023-02-28T05:32:57;6.93;;;2.80;;
2646;SDS011;1333;50.958;6.770;2023-02-28T05:35:23;3.67;;;2.47;;
2646;SDS011;1333;50.958;6.770;2023-02-28T05:37:49;2.33;;;1.90;;
2646;SDS011;1333;50.958;6.770;2023-02-28T05:40:15;3.20;;;2.50;;
2646;SDS011;1333;50.958;6.770;2023-02-28T05:42:41;3.33;;;2.20;;
2646;SDS011;1333;50.958;6.770;2023-02-28T05:45:07;3.00;;;2.23;;
2646;SDS011;1333;50.958;6.770;2023-02-28T05:47:34;3.07;;;2.07;;
2646;SDS011;1333;50.958;6.770;2023-02-28T05:50:00;4.53;;;2.53;;
2646;SDS011;1333;50.958;6.770;2023-02-28T05:52:26;3.27;;;2.00;;
2646;SDS011;1333;50.958;6.770;2023-02-28T05:54:52;6.07;;;2.77;;
2646;SDS011;1333;50.958;6.770;2023-02-28T05:57:18;3.50;;;2.47;;
2646;SDS011;1333;50.958;6.770;2023-02-28T05:59:43;4.00;;;2.50;;
2646;SDS011;1333;50.958;6.770;2023-02-28T06:02:10;3.93;;;2.17;;
2646;SDS011;1333;50.958;6.770;2023-02-28T06:04:38;5.93;;;2.70;;
2646;SDS011;1333;50.958;6.770;2023-02-28T06:07:03;2.87;;;2.20;;
2646;SDS011;1333;50.958;6.770;2023-02-28T06:09:29;5.03;;;2.67;;
2646;SDS011;1333;50.958;6.770;2023-02-28T06:11:54;2.27;;;1.80;;
2646;SDS011;1333;50.958;6.770;2023-02-28T06:14:23;2.10;;;1.70;;
2646;SDS011;1333;50.958;6.770;2023-02-28T06:16:49;4.90;;;2.37;;
2646;SDS011;1333;50.958;6.770;2023-02-28T06:19:14;2.33;;;2.13;;
2646;SDS011;1333;50.958;6.770;2023-02-28T06:21:40;2.63;;;2.43;;
2646;SDS011;1333;50.958;6.770;2023-02-28T06:24:06;3.27;;;1.73;;
2646;SDS011;1333;50.958;6.770;2023-02-28T06:26:32;2.77;;;2.43;;
2646;SDS011;1333;50.958;6.770;2023-02-28T06:28:58;4.00;;;3.00;;
2646;SDS011;1333;50.958;6.770;2023-02-28T06:31:23;2.57;;;1.97;;
2646;SDS011;1333;50.958;6.770;2023-02-28T06:33:50;2.83;;;2.10;;
2646;SDS011;1333;50.958;6.770;2023-02-28T06:36:16;3.17;;;2.13;;
2646;SDS011;1333;50.958;6.770;2023-02-28T06:38:43;3.13;;;2.50;;
2646;SDS011;1333;50.958;6.770;2023-02-28T06:41:09;3.17;;;2.87;;
2646;SDS011;1333;50.958;6.770;2023-02-28T06:43:40;4.10;;;3.17;;
2646;SDS011;1333;50.958;6.770;2023-02-28T06:46:07;8.13;;;3.23;;
2646;SDS011;1333;50.958;6.770;2023-02-28T06:48:35;6.00;;;2.90;;
2646;SDS011;1333;50.958;6.770;2023-02-28T06:51:01;5.40;;;3.10;;
2646;SDS011;1333;50.958;6.770;2023-02-28T06:53:32;3.30;;;3.00;;
2646;SDS011;1333;50.958;6.770;2023-02-28T06:55:58;7.30;;;4.83;;
2646;SDS011;1333;50.958;6.770;2023-02-28T06:58:24;6.33;;;3.60;;
2646;SDS011;1333;50.958;6.770;2023-02-28T07:00:52;2.77;;;2.57;;
2646;SDS011;1333;50.958;6.770;2023-02-28T07:03:18;3.37;;;2.70;;
2646;SDS011;1333;50.958;6.770;2023-02-28T07:05:44;4.43;;;3.00;;
2646;SDS011;1333;50.958;6.770;2023-02-28T07:08:10;3.10;;;2.67;;
2646;SDS011;1333;50.958;6.770;2023-02-28T07:10:39;4.50;;;2.60;;
2646;SDS011;1333;50.958;6.770;2023-02-28T07:13:06;2.63;;;2.40;;
2646;SDS011;1333;50.958;6.770;2023-02-28T07:15:32;2.33;;;1.93;;
2646;SDS011;1333;50.958;6.770;2023-02-28T07:17:57;3.00;;;2.40;;
2646;SDS011;1333;50.958;6.770;2023-02-28T07:20:23;2.47;;;2.27;;
2646;SDS011;1333;50.958;6.770;2023-02-28T07:22:49;2.27;;;1.93;;
2646;SDS011;1333;50.958;6.770;2023-02-28T07:25:21;6.20;;;2.13;;
2646;SDS011;1333;50.958;6.770;2023-02-28T07:27:48;3.50;;;2.03;;
2646;SDS011;1333;50.958;6.770;2023-02-28T07:30:14;10.47;;;2.00;;
2646;SDS011;1333;50.958;6.770;2023-02-28T07:32:39;2.60;;;1.87;;
2646;SDS011;1333;50.958;6.770;2023-02-28T07:35:05;3.40;;;1.87;;
2646;SDS011;1333;50.958;6.770;2023-02-28T07:37:31;2.80;;;2.20;;
2646;SDS011;1333;50.958;6.770;2023-02-28T07:40:01;1.70;;;1.60;;
2646;SDS011;1333;50.958;6.770;2023-02-28T07:42:32;2.20;;;2.00;;
2646;SDS011;1333;50.958;6.770;2023-02-28T07:44:58;4.73;;;1.80;;
2646;SDS011;1333;50.958;6.770;2023-02-28T07:47:23;3.13;;;2.60;;
2646;SDS011;1333;50.958;6.770;2023-02-28T07:49:49;4.53;;;1.80;;
2646;SDS011;1333;50.958;6.770;2023-02-28T07:52:15;4.80;;;2.33;;
2646;SDS011;1333;50.958;6.770;2023-02-28T07:54:40;2.03;;;1.50;;
2646;SDS011;1333;50.958;6.770;2023-02-28T07:57:06;2.03;;;1.67;;
2646;SDS011;1333;50.958;6.770;2023-02-28T07:59:31;1.80;;;1.70;;
2646;SDS011;1333;50.958;6.770;2023-02-28T08:01:57;5.57;;;2.23;;
2646;SDS011;1333;50.958;6.770;2023-02-28T08:04:23;2.70;;;1.80;;
2646;SDS011;1333;50.958;6.770;2023-02-28T08:06:49;2.10;;;1.90;;
2646;SDS011;1333;50.958;6.770;2023-02-28T08:09:17;2.70;;;2.10;;
2646;SDS011;1333;50.958;6.770;2023-02-28T08:11:43;1.83;;;1.73;;
2646;SDS011;1333;50.958;6.770;2023-02-28T08:14:09;1.80;;;1.70;;
2646;SDS011;1333;50.958;6.770;2023-02-28T08:16:34;5.87;;;1.70;;
2646;SDS011;1333;50.958;6.770;2023-02-28T08:19:00;5.27;;;2.00;;
2646;SDS011;1333;50.958;6.770;2023-02-28T08:21:25;1.73;;;1.60;;
2646;SDS011;1333;50.958;6.770;2023-02-28T08:23:51;3.80;;;2.07;;
2646;SDS011;1333;50.958;6.770;2023-02-28T08:26:17;1.93;;;1.60;;
2646;SDS011;1333;50.958;6.770;2023-02-28T08:28:43;2.13;;;1.93;;
2646;SDS011;1333;50.958;6.770;2023-02-28T08:31:10;1.87;;;1.43;;
2646;SDS011;1333;50.958;6.770;2023-02-28T08:33:37;2.00;;;1.80;;
2646;SDS011;1333;50.958;6.770;2023-02-28T08:36:04;2.40;;;1.40;;
2646;SDS011;1333;50.958;6.770;2023-02-28T08:38:33;4.73;;;3.00;;
2646;SDS011;1333;50.958;6.770;2023-02-28T08:41:00;6.53;;;2.60;;
2646;SDS011;1333;50.958;6.770;2023-02-28T08:43:27;5.13;;;1.97;;
2646;SDS011;1333;50.958;6.770;2023-02-28T08:45:53;2.33;;;1.70;;
2646;SDS011;1333;50.958;6.770;2023-02-28T08:48:21;1.90;;;1.80;;
2646;SDS011;1333;50.958;6.770;2023-02-28T08:50:54;1.67;;;1.30;;
2646;SDS011;1333;50.958;6.770;2023-02-28T08:53:21;2.40;;;1.80;;
2646;SDS011;1333;50.958;6.770;2023-02-28T08:55:47;2.00;;;1.90;;
2646;SDS011;1333;50.958;6.770;2023-02-28T08:58:19;4.93;;;1.70;;
2646;SDS011;1333;50.958;6.770;2023-02-28T09:00:45;2.50;;;1.70;;
2646;SDS011;1333;50.958;6.770;2023-02-28T09:03:10;1.37;;;1.20;;
2646;SDS011;1333;50.958;6.770;2023-02-28T09:05:36;5.90;;;1.80;;
2646;SDS011;1333;50.958;6.770;2023-02-28T09:08:01;1.60;;;1.50;;
2646;SDS011;1333;50.958;6.770;2023-02-28T09:10:27;3.27;;;1.07;;
2646;SDS011;1333;50.958;6.770;2023-02-28T09:12:52;4.50;;;1.33;;
2646;SDS011;1333;50.958;6.770;2023-02-28T09:15:18;3.73;;;1.50;;
2646;SDS011;1333;50.958;6.770;2023-02-28T09:17:43;4.80;;;1.50;;
2646;SDS011;1333;50.958;6.770;2023-02-28T09:20:09;2.47;;;2.27;;
2646;SDS011;1333;50.958;6.770;2023-02-28T09:22:35;2.30;;;1.47;;
2646;SDS011;1333;50.958;6.770;2023-02-28T09:25:01;1.43;;;1.33;;
2646;SDS011;1333;50.958;6.770;2023-02-28T09:27:26;2.37;;;1.87;;
2646;SDS011;1333;50.958;6.770;2023-02-28T09:29:52;2.07;;;1.53;;
2646;SDS011;1333;50.958;6.770;2023-02-28T09:32:17;1.87;;;1.50;;
2646;SDS011;1333;50.958;6.770;2023-02-28T09:34:43;1.20;;;1.10;;
2646;SDS011;1333;50.958;6.770;2023-02-28T09:37:08;4.30;;;1.70;;
2646;SDS011;1333;50.958;6.770;2023-02-28T09:39:34;1.90;;;1.40;;
2646;SDS011;1333;50.958;6.770;2023-02-28T09:41:59;2.20;;;1.70;;
2646;SDS011;1333;50.958;6.770;2023-02-28T09:44:37;2.50;;;1.60;;
2646;SDS011;1333;50.958;6.770;2023-02-28T09:49:55;1.93;;;1.67;;
2646;SDS011;1333;50.958;6.770;2023-02-28T09:52:27;1.50;;;1.40;;
2646;SDS011;1333;50.958;6.770;2023-02-28T09:54:55;1.77;;;1.30;;
2646;SDS011;1333;50.958;6.770;2023-02-28T09:57:39;2.03;;;1.60;;
2646;SDS011;1333;50.958;6.770;2023-02-28T10:05:15;1.60;;;1.40;;
2646;SDS011;1333;50.958;6.770;2023-02-28T10:10:21;4.97;;;1.50;;
2646;SDS011;1333;50.958;6.770;2023-02-28T10:12:55;3.77;;;1.73;;
2646;SDS011;1333;50.958;6.770;2023-02-28T10:15:24;1.63;;;1.53;;
2646;SDS011;1333;50.958;6.770;2023-02-28T10:17:57;3.70;;;1.70;;
2646;SDS011;1333;50.958;6.770;2023-02-28T10:20:26;5.73;;;1.70;;
2646;SDS011;1333;50.958;6.770;2023-02-28T10:25:47;2.47;;;1.70;;
2646;SDS011;1333;50.958;6.770;2023-02-28T10:28:19;2.17;;;1.60;;
2646;SDS011;1333;50.958;6.770;2023-02-28T10:30:48;5.83;;;1.73;;
2646;SDS011;1333;50.958;6.770;2023-02-28T10:33:21;1.60;;;1.43;;
2646;SDS011;1333;50.958;6.770;2023-02-28T10:35:59;1.83;;;1.60;;
2646;SDS011;1333;50.958;6.770;2023-02-28T10:38:31;2.30;;;1.80;;
2646;SDS011;1333;50.958;6.770;2023-02-28T10:43:53;2.33;;;1.70;;
2646;SDS011;1333;50.958;6.770;2023-02-28T10:46:40;1.83;;;1.50;;
2646;SDS011;1333;50.958;6.770;2023-02-28T10:49:13;3.07;;;1.97;;
2646;SDS011;1333;50.958;6.770;2023-02-28T10:51:42;3.30;;;1.90;;
2646;SDS011;1333;50.958;6.770;2023-02-28T10:54:19;2.77;;;1.80;;
2646;SDS011;1333;50.958;6.770;2023-02-28T10:59:52;1.60;;;1.50;;
2646;SDS011;1333;50.958;6.770;2023-02-28T11:02:36;3.07;;;1.60;;
2646;SDS011;1333;50.958;6.770;2023-02-28T11:10:36;2.00;;;1.80;;
2646;SDS011;1333;50.958;6.770;2023-02-28T11:13:02;1.57;;;1.47;;
2646;SDS011;1333;50.958;6.770;2023-02-28T11:15:29;1.73;;;1.63;;
2646;SDS011;1333;50.958;6.770;2023-02-28T11:20:23;3.73;;;1.90;;
2646;SDS011;1333;50.958;6.770;2023-02-28T11:22:51;3.40;;;2.33;;
2646;SDS011;1333;50.958;6.770;2023-02-28T11:25:23;2.40;;;2.20;;
2646;SDS011;1333;50.958;6.770;2023-02-28T11:28:02;2.40;;;1.70;;
2646;SDS011;1333;50.958;6.770;2023-02-28T11:30:49;1.70;;;1.60;;
2646;SDS011;1333;50.958;6.770;2023-02-28T11:33:40;2.50;;;1.80;;
2646;SDS011;1333;50.958;6.770;2023-02-28T11:36:11;2.90;;;2.23;;
2646;SDS011;1333;50.958;6.770;2023-02-28T11:38:42;2.20;;;2.10;;
2646;SDS011;1333;50.958;6.770;2023-02-28T11:46:41;1.83;;;1.73;;
2646;SDS011;1333;50.958;6.770;2023-02-28T11:52:21;2.50;;;2.30;;
2646;SDS011;1333;50.958;6.770;2023-02-28T11:55:01;2.73;;;2.13;;
2646;SDS011;1333;50.958;6.770;2023-02-28T11:57:33;2.07;;;1.70;;
2646;SDS011;1333;50.958;6.770;2023-02-28T12:03:25;2.33;;;2.20;;
2646;SDS011;1333;50.958;6.770;2023-02-28T12:06:21;3.30;;;3.00;;
2646;SDS011;1333;50.958;6.770;2023-02-28T12:11:26;2.20;;;2.00;;
2646;SDS011;1333;50.958;6.770;2023-02-28T12:14:05;2.30;;;2.10;;
2646;SDS011;1333;50.958;6.770;2023-02-28T12:19:27;3.17;;;1.93;;
2646;SDS011;1333;50.958;6.770;2023-02-28T12:27:09;2.33;;;2.17;;
2646;SDS011;1333;50.958;6.770;2023-02-28T12:29:49;3.20;;;2.00;;
2646;SDS011;1333;50.958;6.770;2023-02-28T12:32:26;2.80;;;2.07;;
2646;SDS011;1333;50.958;6.770;2023-02-28T12:40:12;2.23;;;2.03;;
2646;SDS011;1333;50.958;6.770;2023-02-28T12:42:46;3.87;;;2.30;;
2646;SDS011;1333;50.958;6.770;2023-02-28T12:48:24;2.73;;;2.30;;
2646;SDS011;1333;50.958;6.770;2023-02-28T12:51:07;2.77;;;1.90;;
2646;SDS011;1333;50.958;6.770;2023-02-28T12:53:41;2.40;;;2.20;;
2646;SDS011;1333;50.958;6.770;2023-02-28T12:56:19;2.67;;;2.47;;
2646;SDS011;1333;50.958;6.770;2023-02-28T13:01:49;1.90;;;1.80;;
2646;SDS011;1333;50.958;6.770;2023-02-28T13:04:48;4.30;;;2.80;;
2646;SDS011;1333;50.958;6.770;2023-02-28T13:09:59;2.60;;;2.40;;
2646;SDS011;1333;50.958;6.770;2023-02-28T13:12:27;3.13;;;2.60;;
2646;SDS011;1333;50.958;6.770;2023-02-28T13:15:16;2.70;;;2.50;;
2646;SDS011;1333;50.958;6.770;2023-02-28T13:17:48;2.57;;;2.30;;
2646;SDS011;1333;50.958;6.770;2023-02-28T13:20:25;2.33;;;2.13;;
2646;SDS011;1333;50.958;6.770;2023-02-28T13:23:02;2.90;;;2.43;;
2646;SDS011;1333;50.958;6.770;2023-02-28T13:27:59;2.83;;;2.27;;
2646;SDS011;1333;50.958;6.770;2023-02-28T13:38:45;2.97;;;2.67;;
2646;SDS011;1333;50.958;6.770;2023-02-28T13:47:22;4.40;;;2.47;;
2646;SDS011;1333;50.958;6.770;2023-02-28T13:49:31;3.63;;;3.33;;
2646;SDS011;1333;50.958;6.770;2023-02-28T14:03:05;4.40;;;2.20;;
2646;SDS011;1333;50.958;6.770;2023-02-28T14:05:43;3.27;;;2.37;;
2646;SDS011;1333;50.958;6.770;2023-02-28T14:08:16;3.10;;;2.37;;
2646;SDS011;1333;50.958;6.770;2023-02-28T14:10:46;3.20;;;2.80;;
2646;SDS011;1333;50.958;6.770;2023-02-28T14:16:24;3.80;;;2.43;;
2646;SDS011;1333;50.958;6.770;2023-02-28T14:18:58;2.63;;;2.43;;
2646;SDS011;1333;50.958;6.770;2023-02-28T14:21:30;2.50;;;2.30;;
2646;SDS011;1333;50.958;6.770;2023-02-28T14:24:16;2.93;;;2.40;;
2646;SDS011;1333;50.958;6.770;2023-02-28T14:27:03;3.17;;;2.97;;
2646;SDS011;1333;50.958;6.770;2023-02-28T14:29:58;2.43;;;2.20;;
2646;SDS011;1333;50.958;6.770;2023-02-28T14:35:44;2.47;;;2.27;;
2646;SDS011;1333;50.958;6.770;2023-02-28T14:38:47;2.53;;;1.70;;
2646;SDS011;1333;50.958;6.770;2023-02-28T14:41:36;2.33;;;2.13;;
2646;SDS011;1333;50.958;6.770;2023-02-28T14:44:37;2.23;;;2.07;;
2646;SDS011;1333;50.958;6.770;2023-02-28T14:46:57;2.73;;;2.23;;
2646;SDS011;1333;50.958;6.770;2023-02-28T14:49:32;2.93;;;2.00;;
2646;SDS011;1333;50.958;6.770;2023-02-28T14:54:39;2.03;;;1.93;;
2646;SDS011;1333;50.958;6.770;2023-02-28T14:57:05;2.50;;;2.30;;
2646;SDS011;1333;50.958;6.770;2023-02-28T14:59:44;3.47;;;2.80;;
2646;SDS011;1333;50.958;6.770;2023-02-28T15:02:52;2.70;;;2.50;;
2646;SDS011;1333;50.958;6.770;2023-02-28T15:05:00;2.63;;;2.40;;
2646;SDS011;1333;50.958;6.770;2023-02-28T15:07:41;3.97;;;2.40;;
2646;SDS011;1333;50.958;6.770;2023-02-28T15:10:13;2.93;;;2.63;;
2646;SDS011;1333;50.958;6.770;2023-02-28T15:12:40;3.07;;;2.77;;
2646;SDS011;1333;50.958;6.770;2023-02-28T15:15:16;2.03;;;1.93;;
2646;SDS011;1333;50.958;6.770;2023-02-28T15:17:45;3.63;;;2.20;;
2646;SDS011;1333;50.958;6.770;2023-02-28T15:20:16;5.23;;;2.80;;
2646;SDS011;1333;50.958;6.770;2023-02-28T15:22:43;2.63;;;2.43;;
2646;SDS011;1333;50.958;6.770;2023-02-28T15:25:13;3.20;;;2.50;;
2646;SDS011;1333;50.958;6.770;2023-02-28T15:27:44;3.23;;;2.90;;
2646;SDS011;1333;50.958;6.770;2023-02-28T15:30:16;3.80;;;2.43;;
2646;SDS011;1333;50.958;6.770;2023-02-28T15:32:45;3.07;;;2.57;;
2646;SDS011;1333;50.958;6.770;2023-02-28T15:35:36;3.70;;;2.90;;
2646;SDS011;1333;50.958;6.770;2023-02-28T15:38:04;3.73;;;3.33;;
2646;SDS011;1333;50.958;6.770;2023-02-28T15:40:54;2.80;;;2.13;;
2646;SDS011;1333;50.958;6.770;2023-02-28T15:43:31;3.03;;;2.73;;
2646;SDS011;1333;50.958;6.770;2023-02-28T15:46:11;3.17;;;2.87;;
2646;SDS011;1333;50.958;6.770;2023-02-28T15:48:52;3.10;;;2.23;;
2646;SDS011;1333;50.958;6.770;2023-02-28T15:51:22;2.40;;;2.20;;
2646;SDS011;1333;50.958;6.770;2023-02-28T15:53:51;3.03;;;2.70;;
2646;SDS011;1333;50.958;6.770;2023-02-28T15:56:23;4.40;;;2.33;;
2646;SDS011;1333;50.958;6.770;2023-02-28T15:59:13;2.97;;;2.53;;
2646;SDS011;1333;50.958;6.770;2023-02-28T16:01:44;5.07;;;2.87;;
2646;SDS011;1333;50.958;6.770;2023-02-28T16:04:17;2.07;;;1.90;;
2646;SDS011;1333;50.958;6.770;2023-02-28T16:06:44;2.43;;;2.23;;
2646;SDS011;1333;50.958;6.770;2023-02-28T16:09:12;2.50;;;2.30;;
2646;SDS011;1333;50.958;6.770;2023-02-28T16:11:47;3.20;;;2.90;;
2646;SDS011;1333;50.958;6.770;2023-02-28T16:14:21;4.40;;;3.13;;
2646;SDS011;1333;50.958;6.770;2023-02-28T16:16:49;4.10;;;2.70;;
2646;SDS011;1333;50.958;6.770;2023-02-28T16:19:19;2.77;;;2.50;;
2646;SDS011;1333;50.958;6.770;2023-02-28T16:21:45;3.03;;;2.73;;
2646;SDS011;1333;50.958;6.770;2023-02-28T16:24:11;2.57;;;2.37;;
2646;SDS011;1333;50.958;6.770;2023-02-28T16:26:37;2.50;;;2.30;;
2646;SDS011;1333;50.958;6.770;2023-02-28T16:29:06;2.50;;;2.30;;
2646;SDS011;1333;50.958;6.770;2023-02-28T16:31:33;2.17;;;1.97;;
2646;SDS011;1333;50.958;6.770;2023-02-28T16:34:02;3.30;;;1.93;;
2646;SDS011;1333;50.958;6.770;2023-02-28T16:36:28;2.50;;;2.30;;
2646;SDS011;1333;50.958;6.770;2023-02-28T16:38:54;3.07;;;2.37;;
2646;SDS011;1333;50.958;6.770;2023-02-28T16:41:24;3.00;;;1.90;;
2646;SDS011;1333;50.958;6.770;2023-02-28T16:43:52;3.70;;;2.30;;
2646;SDS011;1333;50.958;6.770;2023-02-28T16:46:23;2.40;;;1.90;;
2646;SDS011;1333;50.958;6.770;2023-02-28T16:48:52;2.43;;;2.23;;
2646;SDS011;1333;50.958;6.770;2023-02-28T16:51:17;2.27;;;2.07;;
2646;SDS011;1333;50.958;6.770;2023-02-28T16:53:43;2.50;;;2.30;;
2646;SDS011;1333;50.958;6.770;2023-02-28T16:56:19;4.07;;;2.60;;
2646;SDS011;1333;50.958;6.770;2023-02-28T16:58:47;2.90;;;2.50;;
2646;SDS011;1333;50.958;6.770;2023-02-28T17:01:14;3.87;;;2.13;;
2646;SDS011;1333;50.958;6.770;2023-02-28T17:03:40;3.57;;;2.07;;
2646;SDS011;1333;50.958;6.770;2023-02-28T17:06:16;3.57;;;2.73;;
2646;SDS011;1333;50.958;6.770;2023-02-28T17:08:44;3.30;;;2.20;;
2646;SDS011;1333;50.958;6.770;2023-02-28T17:11:09;4.67;;;3.10;;
2646;SDS011;1333;50.958;6.770;2023-02-28T17:13:35;5.37;;;3.30;;
2646;SDS011;1333;50.958;6.770;2023-02-28T17:16:00;2.70;;;2.50;;
2646;SDS011;1333;50.958;6.770;2023-02-28T17:18:27;4.10;;;2.60;;
2646;SDS011;1333;50.958;6.770;2023-02-28T17:20:58;7.33;;;2.80;;
2646;SDS011;1333;50.958;6.770;2023-02-28T17:23:24;5.53;;;3.43;;
2646;SDS011;1333;50.958;6.770;2023-02-28T17:25:50;4.60;;;3.50;;
2646;SDS011;1333;50.958;6.770;2023-02-28T17:28:19;7.10;;;3.50;;
2646;SDS011;1333;50.958;6.770;2023-02-28T17:30:46;4.70;;;2.80;;
2646;SDS011;1333;50.958;6.770;2023-02-28T17:33:13;5.80;;;2.83;;
2646;SDS011;1333;50.958;6.770;2023-02-28T17:35:39;2.97;;;2.67;;
2646;SDS011;1333;50.958;6.770;2023-02-28T17:38:04;7.53;;;5.30;;
2646;SDS011;1333;50.958;6.770;2023-02-28T17:40:32;9.33;;;6.23;;
2646;SDS011;1333;50.958;6.770;2023-02-28T17:42:58;3.83;;;3.10;;
2646;SDS011;1333;50.958;6.770;2023-02-28T17:45:24;3.20;;;2.73;;
2646;SDS011;1333;50.958;6.770;2023-02-28T17:47:49;4.07;;;3.20;;
2646;SDS011;1333;50.958;6.770;2023-02-28T17:50:19;3.70;;;3.00;;